Arenas Valley, New Mexico
Current Conditions -  °F | °C
As of 6:15 PM on Saturday 25 Oct 2014 (Local Time) from KSVC Reporting Station
Clear Clear  
Wind Chill: 73°   Ceiling: Unl
Heat Index: 73°   Visibility: 10mi
Dew Point: 36°   Wind: 9mph
Humidity: 25%   Direction: 290°WNW
Pressure: 30.24"   Gusts: NA
Location:  32.79°N, 108.18°W
Report Text: KSVC 260015Z AUTO 29008KT 10SM CLR 23/02 A3024 RMK AO2
Loading
Personal Weather Stations






























Interactive Weather Map
Tropical Storm Tracking
New forecast layout! Learn more

10-Day Weather Forecast

Advertisements
Track Severe Weather on mobile